aviador You're here:

KEAU Decoded Metar

EAU CLAIRE in WI, USA
Report Time2018-07-22 03:56:00
UTC Time2018-07-22 04:49:44
Flight Rules vfr VFR
Wind010° at 05 kt
W.Decomp.*RWY 04: 4.3 kt HW 2.6 kt LCW
RWY 32: 3.3 kt HW 3.8 kt RCW
W.Rank010° ranks 30
Current wind is below 010° avg. (6.1)
Visibility9999 m
Phenomena:N/A
Clouds:N/A
Expected CloudBase > 800 ft AGL from Temp-Dew spread
CeilingNone
Temp18°C (ISA +5)
Dew Point16°C (88% RH)
QNH1018 hPa
Density Alt1,545 ft
Elevation906 ft
Report Wrong Elevation
Raw Report
KEAU 220356Z AUTO 01005KT 10SM CLR 18/16 A3005 RMK AO2 SLP170
T01830161=

Extra information for KEAU:More info

Metar Taf Metar & Taf Last 4 Metars F.Rules Stats Wind Profile Meteogram Temp Stats Airport Information Weather charts Add Link Nearby VenuesMetar ALERT Operation Metar Decoded Social comments

AIRNAV info for KEAU